Time;durP1;ratioP1;P1;durP2;ratioP2;P2;SDS_P1;SDS_P2;PMS_P1;PMS_P2;Temp;Humidity;BMP_temperature;BMP_pressure;BME280_temperature;BME280_humidity;BME280_pressure;Samples;Min_cycle;Max_cycle;Signal;HPM_P1;HPM_P2
2021/05/21 00:01:16;;;;;;;10.77;9.70;;;;;;;;;;5026499;28;20456;-64
2021/05/21 00:03:43;;;;;;;10.83;9.93;;;;;;;;;;5019864;28;20458;-64
2021/05/21 00:06:09;;;;;;;10.80;10.00;;;;;;;;;;5029076;28;20844;-63
2021/05/21 00:08:36;;;;;;;11.70;10.77;;;;;;;;;;5022923;28;20879;-63
2021/05/21 00:11:02;;;;;;;10.70;9.80;;;;;;;;;;5015031;28;20803;-63
2021/05/21 00:13:29;;;;;;;12.97;11.73;;;;;;;;;;5018934;28;20476;-63
2021/05/21 00:15:56;;;;;;;10.90;10.10;;;;;;;;;;5018043;28;20848;-63
2021/05/21 00:18:23;;;;;;;11.23;10.40;;;;;;;;;;5014938;28;20466;-63
2021/05/21 00:20:50;;;;;;;11.57;10.70;;;;;;;;;;5017067;28;20469;-63
2021/05/21 00:23:18;;;;;;;11.10;10.30;;;;;;;;;;5014911;28;20450;-63
2021/05/21 00:25:44;;;;;;;12.17;11.20;;;;;;;;;;5015455;28;21019;-63
2021/05/21 00:28:11;;;;;;;11.90;11.00;;;;;;;;;;5014701;28;20488;-63
2021/05/21 00:30:38;;;;;;;12.43;11.33;;;;;;;;;;5014596;28;20979;-64
2021/05/21 00:33:04;;;;;;;12.77;11.87;;;;;;;;;;5015474;28;20458;-63
2021/05/21 00:35:32;;;;;;;14.03;12.83;;;;;;;;;;5016919;28;20465;-63
2021/05/21 00:37:59;;;;;;;13.97;12.50;;;;;;;;;;5014036;28;20477;-63
2021/05/21 00:40:25;;;;;;;14.40;13.07;;;;;;;;;;5013251;28;20964;-63
2021/05/21 00:42:52;;;;;;;12.87;11.87;;;;;;;;;;5014700;28;20465;-63
2021/05/21 00:45:18;;;;;;;14.10;12.90;;;;;;;;;;5013384;28;20475;-64
2021/05/21 00:47:45;;;;;;;13.37;12.27;;;;;;;;;;5013429;28;20493;-64
2021/05/21 00:50:12;;;;;;;14.37;13.20;;;;;;;;;;5031061;28;20476;-64
2021/05/21 00:52:42;;;;;;;13.93;12.83;;;;;;;;;;5017222;28;20460;-63
2021/05/21 00:55:09;;;;;;;14.50;13.20;;;;;;;;;;5014474;28;20503;-63
2021/05/21 00:57:36;;;;;;;14.60;13.30;;;;;;;;;;5016720;28;20538;-63
2021/05/21 01:00:03;;;;;;;14.30;13.20;;;;;;;;;;5032905;28;20472;-64
2021/05/21 01:02:30;;;;;;;14.50;13.40;;;;;;;;;;5016820;28;20480;-63
2021/05/21 01:04:56;;;;;;;13.90;12.80;;;;;;;;;;5024192;28;20461;-63
2021/05/21 01:07:23;;;;;;;14.43;13.23;;;;;;;;;;5013313;28;20500;-62
2021/05/21 01:09:51;;;;;;;14.40;13.20;;;;;;;;;;5001192;28;20469;-63
2021/05/21 01:12:18;;;;;;;13.43;12.43;;;;;;;;;;5013508;28;20465;-62
2021/05/21 01:14:48;;;;;;;14.20;13.00;;;;;;;;;;5014857;28;20491;-64
2021/05/21 01:17:15;;;;;;;13.37;12.27;;;;;;;;;;5014029;28;20469;-63
2021/05/21 01:19:41;;;;;;;14.17;12.90;;;;;;;;;;5024755;28;20997;-63
2021/05/21 01:22:09;;;;;;;15.33;14.03;;;;;;;;;;5018445;28;20454;-63
2021/05/21 01:24:36;;;;;;;14.53;13.43;;;;;;;;;;5013694;28;20469;-62
2021/05/21 01:27:03;;;;;;;14.63;13.47;;;;;;;;;;5013479;28;20496;-62
2021/05/21 01:29:30;;;;;;;14.80;13.60;;;;;;;;;;5012473;28;20469;-63
2021/05/21 01:31:56;;;;;;;14.63;13.50;;;;;;;;;;5023719;28;20545;-63
2021/05/21 01:34:23;;;;;;;14.93;13.73;;;;;;;;;;5014497;28;20451;-64
2021/05/21 01:36:50;;;;;;;15.10;13.90;;;;;;;;;;5017205;28;20481;-63
2021/05/21 01:39:17;;;;;;;15.80;14.40;;;;;;;;;;5034742;28;20433;-63
2021/05/21 01:41:44;;;;;;;15.33;14.13;;;;;;;;;;5016136;28;20458;-63
2021/05/21 01:44:11;;;;;;;13.70;12.70;;;;;;;;;;5029501;28;20464;-63
2021/05/21 01:46:38;;;;;;;14.20;13.20;;;;;;;;;;5021672;28;20490;-63
2021/05/21 01:49:05;;;;;;;14.10;13.10;;;;;;;;;;5013049;28;20940;-63
2021/05/21 01:51:32;;;;;;;13.83;12.73;;;;;;;;;;5018110;28;20876;-63
2021/05/21 01:54:12;;;;;;;15.87;14.57;;;;;;;;;;5013380;28;20454;-63
2021/05/21 01:56:39;;;;;;;14.67;13.47;;;;;;;;;;5013905;28;20465;-64
2021/05/21 01:59:06;;;;;;;14.57;13.40;;;;;;;;;;5013702;28;20528;-64
2021/05/21 02:01:32;;;;;;;14.83;13.50;;;;;;;;;;5014072;28;20469;-63
2021/05/21 02:03:59;;;;;;;15.83;14.47;;;;;;;;;;5013164;28;20454;-63
2021/05/21 02:06:26;;;;;;;15.77;14.37;;;;;;;;;;5014273;28;20488;-64
2021/05/21 02:08:53;;;;;;;14.80;13.60;;;;;;;;;;5021979;28;20491;-63
2021/05/21 02:11:19;;;;;;;15.60;14.40;;;;;;;;;;5018905;28;20473;-64
2021/05/21 02:13:47;;;;;;;15.67;14.10;;;;;;;;;;5031599;28;20982;-64
2021/05/21 02:16:14;;;;;;;15.53;13.97;;;;;;;;;;5029982;28;20472;-64
2021/05/21 02:18:42;;;;;;;16.17;14.87;;;;;;;;;;5032997;28;20469;-64
2021/05/21 02:21:08;;;;;;;15.70;14.30;;;;;;;;;;5009689;28;21023;-64
2021/05/21 02:23:35;;;;;;;15.37;14.17;;;;;;;;;;4992655;28;20462;-64
2021/05/21 02:26:02;;;;;;;15.27;14.07;;;;;;;;;;5010322;28;20485;-64
2021/05/21 02:28:28;;;;;;;15.90;14.70;;;;;;;;;;5012829;28;20536;-65
2021/05/21 02:30:56;;;;;;;15.17;13.90;;;;;;;;;;5013001;28;20470;-64
2021/05/21 02:33:22;;;;;;;15.27;14.07;;;;;;;;;;5012948;28;20449;-64
2021/05/21 02:35:49;;;;;;;16.73;15.43;;;;;;;;;;5013428;28;20814;-64
2021/05/21 02:38:15;;;;;;;15.70;14.40;;;;;;;;;;5012113;28;20489;-64
2021/05/21 02:40:42;;;;;;;16.30;15.00;;;;;;;;;;5018472;28;20473;-64
2021/05/21 02:43:09;;;;;;;16.40;15.20;;;;;;;;;;5012597;28;20450;-64
2021/05/21 02:45:35;;;;;;;15.60;14.40;;;;;;;;;;5019812;28;20877;-64
2021/05/21 02:48:03;;;;;;;17.47;15.93;;;;;;;;;;5032361;28;20495;-64
2021/05/21 02:50:29;;;;;;;16.27;14.70;;;;;;;;;;5018008;28;20465;-64
2021/05/21 02:52:56;;;;;;;16.83;15.30;;;;;;;;;;5025078;28;20465;-63
2021/05/21 02:55:23;;;;;;;15.57;14.37;;;;;;;;;;4992802;28;20473;-64
2021/05/21 02:57:49;;;;;;;15.50;14.40;;;;;;;;;;5018424;28;20489;-65
2021/05/21 03:00:17;;;;;;;15.37;14.07;;;;;;;;;;5016743;28;20468;-64
2021/05/21 03:02:44;;;;;;;16.90;15.50;;;;;;;;;;5018955;28;20512;-64
2021/05/21 03:05:12;;;;;;;16.47;15.17;;;;;;;;;;5011612;28;20470;-64
2021/05/21 03:07:38;;;;;;;16.23;14.83;;;;;;;;;;5011755;28;20933;-64
2021/05/21 03:10:06;;;;;;;16.50;15.13;;;;;;;;;;5013592;28;20477;-64
2021/05/21 03:12:33;;;;;;;16.80;15.50;;;;;;;;;;5032025;28;20441;-64
2021/05/21 03:15:00;;;;;;;16.50;15.10;;;;;;;;;;5015803;28;20461;-64
2021/05/21 03:17:26;;;;;;;16.50;15.00;;;;;;;;;;5020255;28;20491;-64
2021/05/21 03:19:53;;;;;;;17.77;16.30;;;;;;;;;;5014757;28;20469;-64
2021/05/21 03:22:20;;;;;;;15.97;14.67;;;;;;;;;;5026926;28;20477;-66
2021/05/21 03:24:47;;;;;;;15.97;14.77;;;;;;;;;;5019473;28;20500;-66
2021/05/21 03:27:14;;;;;;;16.47;15.17;;;;;;;;;;5010872;28;20508;-67
2021/05/21 03:29:40;;;;;;;16.03;14.83;;;;;;;;;;5011760;28;20936;-67
2021/05/21 03:32:08;;;;;;;16.37;15.00;;;;;;;;;;5023565;28;20463;-67
2021/05/21 03:34:34;;;;;;;17.33;15.93;;;;;;;;;;5011803;28;20480;-67
2021/05/21 03:37:01;;;;;;;16.40;15.20;;;;;;;;;;5022222;28;20878;-67
2021/05/21 03:39:28;;;;;;;16.00;14.70;;;;;;;;;;5018267;28;20445;-66
2021/05/21 03:41:55;;;;;;;15.20;13.97;;;;;;;;;;5024849;28;20474;-66
2021/05/21 03:44:21;;;;;;;15.60;14.40;;;;;;;;;;5019327;28;20981;-67
2021/05/21 03:46:48;;;;;;;16.20;15.00;;;;;;;;;;5023267;28;20507;-66
2021/05/21 03:49:16;;;;;;;16.27;14.87;;;;;;;;;;5018715;28;20469;-67
2021/05/21 03:51:42;;;;;;;16.47;15.17;;;;;;;;;;5020244;28;20530;-67
2021/05/21 03:54:09;;;;;;;16.07;14.67;;;;;;;;;;5021819;28;20457;-66
2021/05/21 03:56:37;;;;;;;15.80;14.60;;;;;;;;;;5010672;28;20801;-62
2021/05/21 03:59:04;;;;;;;15.30;14.17;;;;;;;;;;4998381;28;20466;-63
2021/05/21 04:01:30;;;;;;;14.90;13.70;;;;;;;;;;5011297;28;20476;-65
2021/05/21 04:03:57;;;;;;;15.30;13.70;;;;;;;;;;5036898;28;20468;-64
2021/05/21 04:06:24;;;;;;;15.07;13.77;;;;;;;;;;5018375;28;20837;-63
2021/05/21 04:08:50;;;;;;;15.87;14.67;;;;;;;;;;5025391;28;20725;-63
2021/05/21 04:11:17;;;;;;;16.27;14.97;;;;;;;;;;5026347;28;20457;-63
2021/05/21 04:13:44;;;;;;;16.13;14.93;;;;;;;;;;5005846;28;20466;-64
2021/05/21 04:16:13;;;;;;;16.20;15.00;;;;;;;;;;5002146;28;20461;-65
2021/05/21 04:18:40;;;;;;;17.07;15.87;;;;;;;;;;5014513;28;20486;-63
2021/05/21 04:21:06;;;;;;;16.13;15.03;;;;;;;;;;5018936;28;20465;-63
2021/05/21 04:23:33;;;;;;;15.50;14.30;;;;;;;;;;5015368;28;20449;-65
2021/05/21 04:25:59;;;;;;;14.37;13.37;;;;;;;;;;5019595;28;20960;-64
2021/05/21 04:28:26;;;;;;;16.60;15.40;;;;;;;;;;5014944;28;20520;-63
2021/05/21 04:30:53;;;;;;;16.60;15.40;;;;;;;;;;5019798;28;21849;-63
2021/05/21 04:33:20;;;;;;;15.53;14.30;;;;;;;;;;5014379;28;20465;-63
2021/05/21 04:35:47;;;;;;;15.97;14.90;;;;;;;;;;5015185;28;20477;-63
2021/05/21 04:38:13;;;;;;;15.27;14.17;;;;;;;;;;5034450;28;20507;-64
2021/05/21 04:40:40;;;;;;;16.20;15.00;;;;;;;;;;5020617;28;20454;-63
2021/05/21 04:43:06;;;;;;;16.03;14.93;;;;;;;;;;5034596;28;20832;-63
2021/05/21 04:45:33;;;;;;;14.97;13.97;;;;;;;;;;5019956;28;20768;-63
2021/05/21 04:48:01;;;;;;;15.73;14.20;;;;;;;;;;5012965;28;20497;-64
2021/05/21 04:50:27;;;;;;;14.03;13.13;;;;;;;;;;5029369;28;20960;-63
2021/05/21 04:52:54;;;;;;;14.50;13.50;;;;;;;;;;5022124;28;20468;-64
2021/05/21 04:55:21;;;;;;;14.93;13.90;;;;;;;;;;5014438;28;20473;-63
2021/05/21 04:57:49;;;;;;;13.00;12.07;;;;;;;;;;5020373;28;20480;-65
2021/05/21 05:00:16;;;;;;;14.30;13.30;;;;;;;;;;5022138;28;20492;-63
2021/05/21 05:02:43;;;;;;;13.57;12.67;;;;;;;;;;5013873;28;20466;-65
2021/05/21 05:05:11;;;;;;;13.20;12.30;;;;;;;;;;5027800;28;20530;-66
2021/05/21 05:07:38;;;;;;;12.50;11.70;;;;;;;;;;5016710;28;20512;-66
2021/05/21 05:10:05;;;;;;;13.67;12.80;;;;;;;;;;5012491;28;20466;-63
2021/05/21 05:12:31;;;;;;;11.30;10.60;;;;;;;;;;5014403;28;20456;-64
2021/05/21 05:14:58;;;;;;;12.60;11.60;;;;;;;;;;5012988;28;20960;-66
2021/05/21 05:17:25;;;;;;;13.47;12.57;;;;;;;;;;5013301;28;20470;-63
2021/05/21 05:19:51;;;;;;;12.70;11.80;;;;;;;;;;5012776;28;20994;-63
2021/05/21 05:22:19;;;;;;;13.00;12.10;;;;;;;;;;5011601;28;20488;-63
2021/05/21 05:24:45;;;;;;;12.20;11.33;;;;;;;;;;5017597;28;20465;-63
2021/05/21 05:27:12;;;;;;;11.90;11.00;;;;;;;;;;5031056;28;20492;-64
2021/05/21 05:29:38;;;;;;;11.23;10.43;;;;;;;;;;5034985;28;20467;-65
2021/05/21 05:32:05;;;;;;;11.10;10.43;;;;;;;;;;5030113;28;20495;-63
2021/05/21 05:34:32;;;;;;;11.23;10.33;;;;;;;;;;5031424;28;20880;-63
2021/05/21 05:36:59;;;;;;;9.80;9.00;;;;;;;;;;5016811;28;20492;-66
2021/05/21 05:39:26;;;;;;;6.27;5.73;;;;;;;;;;5052221;22;20948;-66
2021/05/21 05:41:53;;;;;;;7.00;5.50;;;;;;;;;;5033480;28;20473;-67
2021/05/21 05:44:20;;;;;;;12.27;6.97;;;;;;;;;;5027649;28;20482;-63
2021/05/21 05:46:47;;;;;;;7.37;6.67;;;;;;;;;;5023637;28;20493;-66
2021/05/21 05:49:13;;;;;;;6.27;5.87;;;;;;;;;;5018481;28;20845;-67
2021/05/21 05:51:40;;;;;;;5.93;5.57;;;;;;;;;;5015483;28;20834;-66
2021/05/21 05:54:07;;;;;;;9.57;4.47;;;;;;;;;;5012137;28;20961;-66
2021/05/21 05:56:35;;;;;;;5.20;3.83;;;;;;;;;;5017225;28;20489;-67
2021/05/21 05:59:01;;;;;;;3.90;3.60;;;;;;;;;;5010600;28;20489;-66
2021/05/21 06:01:28;;;;;;;4.77;4.23;;;;;;;;;;5018539;28;20475;-66
2021/05/21 06:03:54;;;;;;;3.23;2.93;;;;;;;;;;5023291;28;20465;-65
2021/05/21 06:06:21;;;;;;;3.27;2.63;;;;;;;;;;5017614;28;20476;-67
2021/05/21 06:08:47;;;;;;;3.10;2.90;;;;;;;;;;5032690;28;20464;-65
2021/05/21 06:11:14;;;;;;;5.13;2.77;;;;;;;;;;5027609;28;20889;-67
2021/05/21 06:13:42;;;;;;;2.70;2.50;;;;;;;;;;5025077;28;20484;-65
2021/05/21 06:16:09;;;;;;;4.00;3.07;;;;;;;;;;5015916;28;20469;-64
2021/05/21 06:18:36;;;;;;;2.90;2.70;;;;;;;;;;5023810;28;20470;-65
2021/05/21 06:21:03;;;;;;;4.90;2.40;;;;;;;;;;5017277;28;20465;-68
2021/05/21 06:23:30;;;;;;;3.13;2.83;;;;;;;;;;5028303;28;20506;-66
2021/05/21 06:26:12;;;;;;;3.20;2.30;;;;;;;;;;5012054;28;20454;-64
2021/05/21 06:28:40;;;;;;;3.90;2.47;;;;;;;;;;5003271;28;20896;-67
2021/05/21 06:31:08;;;;;;;2.97;2.77;;;;;;;;;;5011166;28;20557;-65
2021/05/21 06:33:35;;;;;;;3.80;3.13;;;;;;;;;;5012106;28;20446;-66
2021/05/21 06:36:01;;;;;;;3.77;2.80;;;;;;;;;;5010685;28;20836;-67
2021/05/21 06:38:28;;;;;;;4.03;2.70;;;;;;;;;;5011312;28;20489;-67
2021/05/21 06:40:55;;;;;;;2.83;2.60;;;;;;;;;;5012405;28;20928;-67
2021/05/21 06:43:21;;;;;;;4.13;2.10;;;;;;;;;;5012061;28;20516;-65
2021/05/21 06:45:49;;;;;;;2.80;2.37;;;;;;;;;;5032181;28;20451;-67
2021/05/21 06:48:16;;;;;;;3.10;2.50;;;;;;;;;;5015133;28;20489;-66
2021/05/21 06:50:43;;;;;;;4.67;3.50;;;;;;;;;;5011903;28;20466;-67
2021/05/21 06:53:10;;;;;;;6.00;2.93;;;;;;;;;;5007019;28;20979;-67
2021/05/21 06:55:38;;;;;;;5.10;2.80;;;;;;;;;;5011617;28;20457;-66
2021/05/21 06:58:05;;;;;;;4.80;2.90;;;;;;;;;;5011158;28;20499;-66
2021/05/21 07:00:34;;;;;;;3.10;2.53;;;;;;;;;;5007531;28;20477;-67
2021/05/21 07:03:01;;;;;;;4.47;2.47;;;;;;;;;;4992577;28;20457;-67
2021/05/21 07:05:28;;;;;;;3.80;2.37;;;;;;;;;;5008904;28;20461;-66
2021/05/21 07:07:55;;;;;;;5.23;3.43;;;;;;;;;;5019348;28;20567;-66
2021/05/21 07:10:21;;;;;;;4.77;2.63;;;;;;;;;;5027087;28;20460;-67
2021/05/21 07:12:48;;;;;;;3.03;2.13;;;;;;;;;;5013310;28;20453;-67
2021/05/21 07:15:15;;;;;;;4.33;2.20;;;;;;;;;;5020378;28;20436;-65
2021/05/21 07:17:41;;;;;;;3.30;2.20;;;;;;;;;;5030855;28;20449;-66
2021/05/21 07:20:10;;;;;;;4.60;2.30;;;;;;;;;;5031398;28;20990;-67
2021/05/21 07:22:38;;;;;;;1.90;1.70;;;;;;;;;;5013220;28;20543;-67
2021/05/21 07:25:05;;;;;;;15.17;2.30;;;;;;;;;;5011066;28;20536;-67
2021/05/21 07:27:32;;;;;;;2.60;2.30;;;;;;;;;;5011720;28;20489;-67
2021/05/21 07:29:59;;;;;;;4.70;1.93;;;;;;;;;;5018324;28;20840;-67
2021/05/21 07:32:26;;;;;;;2.80;2.13;;;;;;;;;;5010437;28;20500;-65
2021/05/21 07:34:53;;;;;;;2.57;2.17;;;;;;;;;;5013712;28;20456;-67
2021/05/21 07:37:19;;;;;;;3.43;2.13;;;;;;;;;;5010091;28;20480;-65
2021/05/21 07:39:47;;;;;;;2.80;1.80;;;;;;;;;;5017851;28;20481;-65
2021/05/21 07:42:14;;;;;;;4.03;1.70;;;;;;;;;;5024057;28;20464;-67
2021/05/21 07:44:40;;;;;;;2.90;2.00;;;;;;;;;;5011382;28;20453;-65
2021/05/21 07:47:07;;;;;;;2.10;1.60;;;;;;;;;;5025007;28;20481;-66
2021/05/21 07:49:33;;;;;;;7.10;1.93;;;;;;;;;;5013111;28;20477;-64
2021/05/21 07:52:00;;;;;;;4.10;2.00;;;;;;;;;;5029662;28;20445;-65
2021/05/21 07:54:26;;;;;;;4.30;1.70;;;;;;;;;;5030129;28;20456;-67
2021/05/21 07:56:54;;;;;;;4.77;1.60;;;;;;;;;;5012924;28;20500;-67
2021/05/21 07:59:21;;;;;;;3.30;1.70;;;;;;;;;;5028086;28;20572;-64
2021/05/21 08:01:47;;;;;;;3.30;1.67;;;;;;;;;;5015908;28;20453;-67
2021/05/21 08:04:14;;;;;;;3.83;2.10;;;;;;;;;;5029616;28;20459;-66
2021/05/21 08:06:41;;;;;;;2.43;1.83;;;;;;;;;;5029466;28;20534;-66
2021/05/21 08:09:08;;;;;;;3.73;1.50;;;;;;;;;;5020225;28;20483;-67
2021/05/21 08:11:35;;;;;;;3.77;1.73;;;;;;;;;;5021715;28;20479;-67
2021/05/21 08:14:02;;;;;;;2.37;1.67;;;;;;;;;;5029813;28;20952;-65
2021/05/21 08:16:29;;;;;;;4.33;2.07;;;;;;;;;;5022942;28;20449;-64
2021/05/21 08:18:56;;;;;;;3.40;1.93;;;;;;;;;;5014324;28;20473;-67
2021/05/21 08:21:22;;;;;;;2.07;1.60;;;;;;;;;;5020306;28;20457;-67
2021/05/21 08:23:49;;;;;;;4.03;2.10;;;;;;;;;;5015380;28;20465;-64
2021/05/21 08:26:16;;;;;;;2.93;1.90;;;;;;;;;;5002080;28;20458;-67
2021/05/21 08:28:43;;;;;;;2.57;1.80;;;;;;;;;;5009742;28;20569;-67
2021/05/21 08:31:10;;;;;;;3.37;1.90;;;;;;;;;;5016070;28;20564;-67
2021/05/21 08:33:43;;;;;;;3.53;1.77;;;;;;;;;;5015806;28;20475;-66
2021/05/21 08:36:10;;;;;;;2.90;1.50;;;;;;;;;;5030336;28;20448;-67
2021/05/21 08:38:37;;;;;;;1.77;1.43;;;;;;;;;;5015455;28;20890;-67
2021/05/21 08:41:05;;;;;;;3.00;1.50;;;;;;;;;;5027676;28;20536;-66
2021/05/21 08:43:31;;;;;;;1.50;1.20;;;;;;;;;;5012078;28;20472;-67
2021/05/21 08:45:58;;;;;;;4.40;1.47;;;;;;;;;;5013084;28;20465;-67
2021/05/21 08:48:26;;;;;;;2.40;1.30;;;;;;;;;;5013257;28;20928;-67
2021/05/21 08:50:52;;;;;;;3.70;1.93;;;;;;;;;;5016646;28;20949;-67
2021/05/21 08:53:19;;;;;;;9.30;4.30;;;;;;;;;;5016127;28;20449;-66
2021/05/21 08:55:45;;;;;;;4.00;3.60;;;;;;;;;;5033915;28;20844;-66
2021/05/21 08:58:13;;;;;;;5.73;4.10;;;;;;;;;;5026841;28;20473;-66
2021/05/21 09:00:39;;;;;;;6.00;4.20;;;;;;;;;;5009937;28;20465;-66
2021/05/21 09:03:19;;;;;;;5.80;4.33;;;;;;;;;;5014339;28;20476;-65
2021/05/21 09:06:01;;;;;;;4.80;4.30;;;;;;;;;;4994045;28;20873;-65
2021/05/21 09:08:36;;;;;;;5.10;4.47;;;;;;;;;;5005343;28;20508;-65
2021/05/21 09:11:02;;;;;;;7.77;5.60;;;;;;;;;;5014792;28;20471;-65
2021/05/21 09:13:35;;;;;;;5.70;5.27;;;;;;;;;;5014431;28;20454;-65
2021/05/21 09:16:18;;;;;;;6.73;5.70;;;;;;;;;;5013649;28;20449;-66
2021/05/21 09:18:57;;;;;;;7.67;5.10;;;;;;;;;;5025725;28;20490;-64
2021/05/21 09:21:24;;;;;;;5.70;5.07;;;;;;;;;;5033635;28;20939;-64
2021/05/21 09:24:02;;;;;;;6.17;5.23;;;;;;;;;;5021254;28;20501;-64
2021/05/21 09:26:39;;;;;;;5.37;4.27;;;;;;;;;;5013937;28;20446;-64
2021/05/21 09:29:06;;;;;;;4.97;4.13;;;;;;;;;;5027443;28;20475;-65
2021/05/21 09:31:41;;;;;;;5.07;3.30;;;;;;;;;;5033202;28;20483;-64
2021/05/21 09:34:08;;;;;;;4.80;2.90;;;;;;;;;;5032399;28;20509;-66
2021/05/21 09:36:36;;;;;;;4.77;3.10;;;;;;;;;;5031952;28;20473;-65
2021/05/21 09:39:06;;;;;;;4.10;3.17;;;;;;;;;;5031628;28;20563;-66
2021/05/21 09:41:43;;;;;;;6.80;3.07;;;;;;;;;;5028422;28;20456;-66
2021/05/21 09:44:10;;;;;;;5.50;3.00;;;;;;;;;;5014193;28;20537;-65
2021/05/21 09:46:40;;;;;;;6.53;3.00;;;;;;;;;;5016135;28;20484;-66
2021/05/21 09:49:25;;;;;;;7.23;2.70;;;;;;;;;;5014050;28;20474;-65
2021/05/21 09:51:52;;;;;;;4.87;2.80;;;;;;;;;;5013448;28;20449;-66
2021/05/21 09:54:19;;;;;;;7.40;2.90;;;;;;;;;;5014209;28;20505;-66
2021/05/21 09:57:03;;;;;;;5.27;2.67;;;;;;;;;;5021445;28;20457;-67
2021/05/21 09:59:39;;;;;;;6.13;2.80;;;;;;;;;;5014991;28;20473;-66
2021/05/21 10:02:22;;;;;;;4.33;2.33;;;;;;;;;;5020682;28;20505;-66
2021/05/21 10:04:49;;;;;;;4.33;2.63;;;;;;;;;;5033314;28;20452;-67
2021/05/21 10:07:16;;;;;;;7.10;2.60;;;;;;;;;;5033693;28;20512;-69
2021/05/21 10:09:44;;;;;;;7.43;3.00;;;;;;;;;;5033691;28;20460;-66
2021/05/21 10:12:10;;;;;;;3.90;2.37;;;;;;;;;;5033554;28;20506;-67
2021/05/21 10:14:37;;;;;;;6.57;2.47;;;;;;;;;;5030822;28;20940;-66
2021/05/21 10:17:04;;;;;;;5.50;2.70;;;;;;;;;;5013445;28;20441;-66
2021/05/21 10:19:32;;;;;;;4.07;2.30;;;;;;;;;;5013434;28;20848;-66
2021/05/21 10:21:59;;;;;;;4.60;2.30;;;;;;;;;;5014089;28;20450;-66
2021/05/21 10:24:28;;;;;;;4.60;2.30;;;;;;;;;;5017883;28;20449;-66
2021/05/21 10:26:56;;;;;;;5.10;2.47;;;;;;;;;;5012755;28;20484;-66
2021/05/21 10:29:26;;;;;;;5.63;2.73;;;;;;;;;;5012463;28;20473;-67
2021/05/21 10:31:53;;;;;;;4.97;2.47;;;;;;;;;;5012957;28;20453;-66
2021/05/21 10:34:20;;;;;;;5.63;2.27;;;;;;;;;;5012535;28;20964;-68
2021/05/21 10:36:47;;;;;;;4.80;2.70;;;;;;;;;;5012320;28;20968;-67
2021/05/21 10:39:15;;;;;;;5.43;2.50;;;;;;;;;;5012580;28;21194;-67
2021/05/21 10:41:50;;;;;;;5.67;2.70;;;;;;;;;;5012738;28;20552;-67
2021/05/21 10:44:21;;;;;;;4.40;1.93;;;;;;;;;;5012920;28;20500;-65
2021/05/21 10:46:48;;;;;;;3.30;2.00;;;;;;;;;;5014524;28;20544;-66
2021/05/21 10:49:24;;;;;;;8.00;2.63;;;;;;;;;;5022953;28;20465;-67
2021/05/21 10:51:51;;;;;;;6.20;2.30;;;;;;;;;;5001737;28;20465;-67
2021/05/21 10:54:25;;;;;;;4.23;2.73;;;;;;;;;;5012525;28;20463;-67
2021/05/21 10:56:53;;;;;;;5.47;2.37;;;;;;;;;;5010917;28;20457;-67
2021/05/21 10:59:21;;;;;;;3.40;2.27;;;;;;;;;;5012306;28;20480;-67
2021/05/21 11:01:48;;;;;;;3.70;1.90;;;;;;;;;;5023685;28;20453;-67
2021/05/21 11:04:19;;;;;;;5.47;1.97;;;;;;;;;;5031599;28;20507;-66
2021/05/21 11:06:47;;;;;;;7.67;2.67;;;;;;;;;;5031677;28;20531;-67
2021/05/21 11:09:14;;;;;;;4.00;2.10;;;;;;;;;;5026219;28;20479;-67
2021/05/21 11:11:48;;;;;;;5.13;2.40;;;;;;;;;;4994502;28;20525;-66
2021/05/21 11:14:32;;;;;;;5.80;2.70;;;;;;;;;;5005194;28;20461;-66
2021/05/21 11:17:00;;;;;;;5.30;2.67;;;;;;;;;;5000963;28;20433;-65
2021/05/21 11:19:28;;;;;;;7.10;2.87;;;;;;;;;;5013971;28;20482;-65
2021/05/21 11:22:08;;;;;;;4.40;2.60;;;;;;;;;;5011365;28;20445;-64
2021/05/21 11:24:36;;;;;;;4.50;2.60;;;;;;;;;;5011306;28;20952;-66
2021/05/21 11:27:03;;;;;;;4.00;2.50;;;;;;;;;;5017109;28;20470;-66
2021/05/21 11:29:29;;;;;;;5.43;2.47;;;;;;;;;;5011930;28;20473;-64
2021/05/21 11:31:56;;;;;;;4.10;2.63;;;;;;;;;;5016231;28;20533;-66
2021/05/21 11:34:23;;;;;;;6.80;2.93;;;;;;;;;;5026290;28;20454;-66
2021/05/21 11:36:55;;;;;;;4.27;2.67;;;;;;;;;;5015853;28;20945;-65
2021/05/21 11:39:24;;;;;;;7.80;2.63;;;;;;;;;;5044712;22;20504;-64
2021/05/21 11:41:51;;;;;;;6.20;3.30;;;;;;;;;;5032400;28;20446;-61
2021/05/21 11:44:18;;;;;;;5.50;3.07;;;;;;;;;;5028505;28;20445;-63
2021/05/21 11:46:46;;;;;;;3.80;2.60;;;;;;;;;;5027203;28;20948;-63
2021/05/21 11:49:18;;;;;;;8.20;3.13;;;;;;;;;;5018643;28;20531;-62
2021/05/21 11:51:46;;;;;;;4.43;2.47;;;;;;;;;;5030490;28;20449;-60
2021/05/21 11:54:12;;;;;;;5.30;3.00;;;;;;;;;;5030232;28;20457;-63
2021/05/21 11:56:40;;;;;;;6.50;3.10;;;;;;;;;;5031373;28;20847;-60
2021/05/21 11:59:08;;;;;;;4.70;3.03;;;;;;;;;;5035268;28;20475;-62
2021/05/21 12:01:35;;;;;;;7.53;3.43;;;;;;;;;;5022770;28;20836;-62
2021/05/21 12:04:03;;;;;;;4.77;3.43;;;;;;;;;;5015651;28;20450;-62
2021/05/21 12:06:29;;;;;;;5.90;3.20;;;;;;;;;;5034808;28;20456;-62
2021/05/21 12:08:57;;;;;;;4.33;2.73;;;;;;;;;;5035434;28;20488;-62
2021/05/21 12:11:25;;;;;;;5.23;2.50;;;;;;;;;;5034732;28;21036;-61
2021/05/21 12:13:52;;;;;;;8.17;2.47;;;;;;;;;;5035236;28;20444;-62
2021/05/21 12:16:20;;;;;;;3.70;2.33;;;;;;;;;;5033901;28;20944;-64
2021/05/21 12:18:47;;;;;;;4.67;3.10;;;;;;;;;;5035138;28;20522;-62
2021/05/21 12:21:20;;;;;;;7.57;3.10;;;;;;;;;;5030660;28;20469;-61
2021/05/21 12:23:50;;;;;;;6.37;2.77;;;;;;;;;;5025045;28;20448;-63
2021/05/21 12:26:19;;;;;;;6.03;2.73;;;;;;;;;;5032961;28;20453;-63
2021/05/21 12:28:46;;;;;;;4.83;2.70;;;;;;;;;;5026711;28;21035;-62
2021/05/21 12:31:13;;;;;;;9.60;3.20;;;;;;;;;;5026593;28;20448;-61
2021/05/21 12:33:40;;;;;;;6.50;2.73;;;;;;;;;;5034572;28;20455;-62
2021/05/21 12:36:08;;;;;;;3.90;2.60;;;;;;;;;;5034266;28;20452;-64
2021/05/21 12:38:35;;;;;;;3.37;2.70;;;;;;;;;;5033838;28;20479;-64
2021/05/21 12:41:02;;;;;;;7.67;2.87;;;;;;;;;;5034359;28;20799;-63
2021/05/21 12:43:29;;;;;;;4.47;2.40;;;;;;;;;;5032539;28;20518;-64
2021/05/21 12:46:02;;;;;;;5.27;2.90;;;;;;;;;;5033085;28;20447;-63
2021/05/21 12:48:32;;;;;;;4.90;2.80;;;;;;;;;;5032963;28;20522;-62
2021/05/21 12:51:09;;;;;;;4.80;2.70;;;;;;;;;;5033004;28;20449;-62
2021/05/21 12:53:36;;;;;;;5.00;2.10;;;;;;;;;;5038266;28;20448;-62
2021/05/21 12:56:02;;;;;;;4.10;2.40;;;;;;;;;;5031241;28;20460;-63
2021/05/21 12:58:40;;;;;;;4.10;2.33;;;;;;;;;;5024598;28;20449;-62
2021/05/21 13:01:06;;;;;;;4.10;2.37;;;;;;;;;;5032863;28;20470;-61
2021/05/21 13:03:47;;;;;;;4.07;1.87;;;;;;;;;;5033245;28;20864;-60
2021/05/21 13:06:14;;;;;;;4.97;2.47;;;;;;;;;;5033395;28;20481;-60
2021/05/21 13:08:46;;;;;;;3.93;2.00;;;;;;;;;;5032549;28;21046;-62
2021/05/21 13:11:13;;;;;;;5.10;2.33;;;;;;;;;;5031911;28;20536;-62
2021/05/21 13:13:41;;;;;;;4.77;2.20;;;;;;;;;;5032616;28;20456;-62
2021/05/21 13:16:07;;;;;;;4.67;2.57;;;;;;;;;;5031776;28;20456;-62
2021/05/21 13:18:34;;;;;;;4.93;2.53;;;;;;;;;;5032524;28;21037;-62
2021/05/21 13:21:05;;;;;;;5.33;2.80;;;;;;;;;;5031730;28;20477;-59
2021/05/21 13:23:32;;;;;;;3.13;1.90;;;;;;;;;;5031556;28;20452;-62
2021/05/21 13:26:01;;;;;;;2.83;1.87;;;;;;;;;;5031918;28;20449;-62
2021/05/21 13:28:28;;;;;;;6.13;2.73;;;;;;;;;;5031749;28;20480;-64
2021/05/21 13:30:55;;;;;;;7.37;3.30;;;;;;;;;;5031789;28;20453;-62
2021/05/21 13:33:22;;;;;;;6.00;2.80;;;;;;;;;;5032172;28;20456;-61
2021/05/21 13:35:49;;;;;;;5.90;3.00;;;;;;;;;;5031569;28;20452;-63
2021/05/21 13:38:15;;;;;;;5.53;3.00;;;;;;;;;;5032004;28;20445;-63
2021/05/21 13:40:42;;;;;;;6.17;2.40;;;;;;;;;;5031105;28;21026;-62
2021/05/21 13:43:10;;;;;;;5.40;2.60;;;;;;;;;;5032308;28;20448;-64
2021/05/21 13:45:37;;;;;;;6.07;2.27;;;;;;;;;;5030654;28;20449;-68
2021/05/21 13:48:05;;;;;;;4.43;2.90;;;;;;;;;;5031972;28;21058;-61
2021/05/21 13:50:33;;;;;;;5.97;2.50;;;;;;;;;;5031826;28;20516;-62
2021/05/21 13:53:01;;;;;;;5.67;2.60;;;;;;;;;;5032385;28;20457;-61
2021/05/21 13:55:27;;;;;;;9.73;2.80;;;;;;;;;;5031818;28;20461;-62
2021/05/21 13:57:54;;;;;;;6.77;2.57;;;;;;;;;;5032129;28;20668;-61
2021/05/21 14:00:21;;;;;;;7.20;2.40;;;;;;;;;;5031450;28;21003;-61
2021/05/21 14:02:48;;;;;;;4.40;2.67;;;;;;;;;;5032100;28;20510;-62
2021/05/21 14:05:15;;;;;;;10.03;2.77;;;;;;;;;;5031880;28;20484;-64
2021/05/21 14:07:43;;;;;;;9.50;3.13;;;;;;;;;;5031929;28;20507;-62
2021/05/21 14:10:10;;;;;;;5.50;2.50;;;;;;;;;;5032302;28;20835;-64
2021/05/21 14:12:37;;;;;;;5.70;2.17;;;;;;;;;;5031649;28;20463;-61
2021/05/21 14:15:04;;;;;;;3.73;2.03;;;;;;;;;;5031611;28;20456;-62
2021/05/21 14:17:31;;;;;;;5.70;1.87;;;;;;;;;;5031150;28;20444;-61
2021/05/21 14:19:57;;;;;;;8.50;1.90;;;;;;;;;;5030714;28;20483;-63
2021/05/21 14:22:25;;;;;;;7.23;2.37;;;;;;;;;;5031657;28;20445;-64
2021/05/21 14:24:52;;;;;;;6.17;2.37;;;;;;;;;;5031375;28;20451;-64
2021/05/21 14:27:19;;;;;;;5.90;1.70;;;;;;;;;;5030489;28;20487;-62
2021/05/21 14:29:46;;;;;;;5.20;2.20;;;;;;;;;;5031876;28;20481;-63
2021/05/21 14:32:13;;;;;;;2.80;1.67;;;;;;;;;;5031646;28;20813;-62
2021/05/21 14:34:39;;;;;;;3.20;1.50;;;;;;;;;;5031544;28;20503;-62
2021/05/21 14:37:07;;;;;;;5.50;1.90;;;;;;;;;;5030567;28;20457;-61